createdAt,value
2018-02-23T00:00:34.633Z,0.00
2018-02-23T00:01:34.614Z,0.00
2018-02-23T00:02:34.601Z,0.00
2018-02-23T00:03:34.579Z,0.00
2018-02-23T00:04:34.558Z,0.00
2018-02-23T00:05:34.540Z,0.00
2018-02-23T00:06:34.521Z,0.00
2018-02-23T00:07:34.502Z,0.00
2018-02-23T00:08:34.489Z,0.00
2018-02-23T00:09:34.478Z,0.00
2018-02-23T00:10:34.446Z,0.00
2018-02-23T00:11:34.428Z,0.00
2018-02-23T00:12:34.415Z,0.00
2018-02-23T00:13:34.393Z,0.00
2018-02-23T00:14:34.371Z,0.00
2018-02-23T00:15:34.353Z,0.00
2018-02-23T00:16:34.394Z,0.00
2018-02-23T00:17:34.320Z,0.00
2018-02-23T00:18:34.299Z,0.00
2018-02-23T00:19:34.280Z,0.00
2018-02-23T00:20:34.263Z,0.00
2018-02-23T00:21:34.249Z,0.00
2018-02-23T00:22:34.224Z,0.00
2018-02-23T00:23:34.207Z,0.00
2018-02-23T00:24:34.189Z,0.00
2018-02-23T00:25:34.168Z,0.00
2018-02-23T00:26:34.158Z,0.00
2018-02-23T00:27:34.132Z,0.00
2018-02-23T00:28:34.120Z,0.00
2018-02-23T00:29:34.100Z,0.00
2018-02-23T00:30:34.078Z,0.00
2018-02-23T00:31:34.057Z,0.00
2018-02-23T00:32:34.039Z,0.00
2018-02-23T00:33:34.023Z,0.00
2018-02-23T00:34:34.002Z,0.00
2018-02-23T00:35:33.988Z,0.00
2018-02-23T00:36:33.965Z,0.00
2018-02-23T00:37:33.952Z,0.00
2018-02-23T00:38:33.929Z,0.00
2018-02-23T00:39:33.911Z,0.00
2018-02-23T00:40:33.899Z,0.00
2018-02-23T00:41:33.873Z,0.00
2018-02-23T00:42:33.856Z,0.00
2018-02-23T00:43:33.842Z,0.00
2018-02-23T00:44:33.820Z,0.00
2018-02-23T00:45:33.801Z,0.00
2018-02-23T00:46:33.780Z,0.00
2018-02-23T00:47:33.762Z,0.00
2018-02-23T00:48:33.744Z,0.00
2018-02-23T00:49:33.726Z,0.00
2018-02-23T00:50:33.707Z,0.00
2018-02-23T00:51:33.687Z,0.00
2018-02-23T00:52:33.668Z,0.00
2018-02-23T00:53:33.651Z,0.00
2018-02-23T00:54:33.634Z,0.00
2018-02-23T00:55:33.620Z,0.00
2018-02-23T00:56:33.593Z,0.00
2018-02-23T00:57:33.578Z,0.00
2018-02-23T00:58:33.558Z,0.00
2018-02-23T00:59:33.538Z,0.00
2018-02-23T01:00:33.522Z,0.00
2018-02-23T01:01:33.502Z,0.00
2018-02-23T01:02:33.482Z,0.00
2018-02-23T01:03:33.464Z,0.00
2018-02-23T01:04:33.451Z,0.00
2018-02-23T01:05:33.429Z,0.00
2018-02-23T01:06:33.413Z,0.00
2018-02-23T01:07:33.390Z,0.00
2018-02-23T01:08:33.377Z,0.00
2018-02-23T01:09:33.359Z,0.00
2018-02-23T01:10:33.343Z,0.00
2018-02-23T01:11:33.318Z,0.00
2018-02-23T01:12:33.300Z,0.00
2018-02-23T01:13:33.281Z,0.00
2018-02-23T01:14:33.263Z,0.00
2018-02-23T01:15:33.243Z,0.00
2018-02-23T01:16:33.227Z,0.00
2018-02-23T01:17:33.208Z,0.00
2018-02-23T01:18:33.195Z,0.00
2018-02-23T01:19:33.174Z,0.00
2018-02-23T01:20:33.159Z,0.00
2018-02-23T01:21:33.196Z,0.00
2018-02-23T01:22:33.116Z,0.00
2018-02-23T01:23:33.097Z,0.00
2018-02-23T01:24:33.081Z,0.00
2018-02-23T01:25:33.067Z,0.00
2018-02-23T01:26:33.048Z,0.00
2018-02-23T01:27:33.025Z,0.00
2018-02-23T01:28:33.007Z,0.00
2018-02-23T01:29:32.989Z,0.00
2018-02-23T01:30:32.969Z,0.00
2018-02-23T01:31:32.955Z,0.00
2018-02-23T01:32:32.934Z,0.00
2018-02-23T01:33:32.913Z,0.00
2018-02-23T01:34:32.894Z,0.00
2018-02-23T01:35:32.878Z,0.00
2018-02-23T01:36:32.860Z,0.00
2018-02-23T01:37:32.839Z,0.00
2018-02-23T01:38:32.827Z,0.00
2018-02-23T01:39:32.804Z,0.00
2018-02-23T01:40:32.784Z,0.00
2018-02-23T01:41:32.767Z,0.00
2018-02-23T01:42:32.807Z,0.00
2018-02-23T01:43:32.739Z,0.00
2018-02-23T01:44:32.713Z,0.00
2018-02-23T01:45:32.693Z,0.00
2018-02-23T01:46:32.674Z,0.00
2018-02-23T01:47:32.658Z,0.00
2018-02-23T01:48:32.638Z,0.00
2018-02-23T01:49:32.618Z,0.00
2018-02-23T01:50:32.601Z,0.00
2018-02-23T01:51:32.585Z,0.00
2018-02-23T01:52:32.565Z,0.00
2018-02-23T01:53:32.552Z,0.00
2018-02-23T01:54:32.528Z,0.00
2018-02-23T01:55:32.518Z,0.00
2018-02-23T01:56:32.492Z,0.00
2018-02-23T01:57:32.470Z,0.00
2018-02-23T01:58:32.453Z,0.00
2018-02-23T01:59:32.434Z,0.00
2018-02-23T02:00:32.420Z,0.00
2018-02-23T02:01:32.398Z,0.00
2018-02-23T02:02:32.381Z,0.00
2018-02-23T02:03:32.362Z,0.00
2018-02-23T02:04:32.343Z,0.00
2018-02-23T02:05:32.323Z,0.00
2018-02-23T02:06:32.311Z,0.00
2018-02-23T02:07:32.289Z,0.00
2018-02-23T02:08:32.267Z,0.00
2018-02-23T02:09:32.253Z,0.00
2018-02-23T02:10:32.231Z,0.00
2018-02-23T02:11:32.215Z,0.00
2018-02-23T02:12:32.196Z,0.00
2018-02-23T02:13:32.182Z,0.00
2018-02-23T02:14:32.162Z,0.00
2018-02-23T02:15:32.139Z,0.00
2018-02-23T02:16:32.122Z,0.00
2018-02-23T02:17:32.105Z,0.00
2018-02-23T02:18:32.090Z,0.00
2018-02-23T02:19:32.066Z,0.00
2018-02-23T02:20:32.049Z,0.00
2018-02-23T02:21:32.034Z,0.00
2018-02-23T02:22:32.014Z,0.00
2018-02-23T02:23:31.999Z,0.00
2018-02-23T02:24:31.977Z,0.00
2018-02-23T02:25:31.964Z,0.00
2018-02-23T02:26:31.942Z,0.00
2018-02-23T02:27:31.922Z,0.00
2018-02-23T02:28:31.906Z,0.00
2018-02-23T02:29:31.886Z,0.00
2018-02-23T02:30:31.870Z,0.00
2018-02-23T02:31:31.860Z,0.00
2018-02-23T02:32:31.829Z,0.00
2018-02-23T02:33:31.812Z,0.00
2018-02-23T02:34:31.795Z,0.00
2018-02-23T02:35:31.775Z,0.00
2018-02-23T02:36:31.760Z,0.00
2018-02-23T02:37:31.743Z,0.00
2018-02-23T02:38:31.720Z,0.00
2018-02-23T02:39:31.702Z,0.00
2018-02-23T02:40:31.684Z,0.00
2018-02-23T02:41:31.665Z,0.00
2018-02-23T02:42:31.645Z,0.00
2018-02-23T02:43:31.638Z,0.00
2018-02-23T02:44:31.611Z,0.00
2018-02-23T02:45:31.593Z,0.00
2018-02-23T02:46:31.572Z,0.00
2018-02-23T02:47:31.554Z,0.00
2018-02-23T02:48:31.536Z,0.00
2018-02-23T02:49:31.522Z,0.00
2018-02-23T02:50:31.504Z,0.00
2018-02-23T02:51:31.486Z,0.00
2018-02-23T02:52:31.463Z,0.00
2018-02-23T02:53:31.452Z,0.00
2018-02-23T02:54:31.426Z,0.00
2018-02-23T02:55:31.412Z,0.00
2018-02-23T02:56:31.390Z,0.00
2018-02-23T02:57:31.372Z,0.00
2018-02-23T02:58:31.359Z,0.00
2018-02-23T02:59:31.334Z,0.00
2018-02-23T03:00:31.324Z,0.00
2018-02-23T03:01:31.298Z,0.00
2018-02-23T03:02:31.279Z,0.00
2018-02-23T03:03:31.261Z,0.00
2018-02-23T03:04:31.243Z,0.00
2018-02-23T03:05:31.229Z,0.00
2018-02-23T03:06:31.212Z,0.00
2018-02-23T03:07:31.188Z,0.00
2018-02-23T03:08:31.169Z,0.00
2018-02-23T03:09:31.151Z,0.00
2018-02-23T03:10:31.131Z,0.00
2018-02-23T03:11:31.114Z,0.00
2018-02-23T03:12:31.096Z,0.00
2018-02-23T03:13:31.079Z,0.00
2018-02-23T03:14:31.057Z,0.00
2018-02-23T03:15:31.040Z,0.00
2018-02-23T03:16:31.021Z,0.00
2018-02-23T03:17:31.005Z,0.00
2018-02-23T03:18:30.990Z,0.00
2018-02-23T03:19:30.968Z,0.00
2018-02-23T03:20:30.949Z,0.00
2018-02-23T03:21:30.932Z,0.00
2018-02-23T03:22:30.912Z,0.00
2018-02-23T03:23:30.901Z,0.00
2018-02-23T03:24:30.879Z,0.00
2018-02-23T03:25:30.855Z,0.00
2018-02-23T03:26:30.836Z,0.00
2018-02-23T03:27:30.817Z,0.00
2018-02-23T03:28:30.807Z,0.00
2018-02-23T03:29:30.781Z,0.00
2018-02-23T03:30:30.761Z,0.00
2018-02-23T03:31:30.745Z,0.00
2018-02-23T03:32:30.725Z,0.00
2018-02-23T03:33:30.709Z,0.00
2018-02-23T03:34:30.689Z,0.00
2018-02-23T03:35:30.670Z,0.00
2018-02-23T03:36:30.652Z,0.00
2018-02-23T03:37:30.634Z,0.00
2018-02-23T03:38:30.614Z,0.00
2018-02-23T03:39:30.602Z,0.00
2018-02-23T03:40:30.577Z,0.00
2018-02-23T03:41:30.560Z,0.00
2018-02-23T03:42:30.538Z,0.00
2018-02-23T03:43:30.526Z,0.00
2018-02-23T03:44:30.503Z,0.00
2018-02-23T03:45:30.487Z,0.00
2018-02-23T03:46:30.466Z,0.00
2018-02-23T03:47:30.458Z,0.00
2018-02-23T03:48:30.434Z,0.00
2018-02-23T03:49:30.408Z,0.00
2018-02-23T03:50:30.398Z,0.00
2018-02-23T03:51:30.373Z,0.00
2018-02-23T03:52:30.353Z,0.00
2018-02-23T03:53:30.339Z,0.00
2018-02-23T03:54:30.317Z,0.00
2018-02-23T03:55:30.297Z,0.00
2018-02-23T03:56:30.280Z,0.00
2018-02-23T03:57:30.263Z,0.00
2018-02-23T03:58:30.247Z,0.00
2018-02-23T03:59:30.224Z,0.00
2018-02-23T04:00:30.212Z,0.00
2018-02-23T04:01:30.192Z,0.00
2018-02-23T04:02:30.173Z,0.00
2018-02-23T04:03:30.154Z,0.00
2018-02-23T04:04:30.130Z,0.00
2018-02-23T04:05:30.111Z,0.00
2018-02-23T04:06:30.093Z,0.00
2018-02-23T04:07:30.080Z,0.00
2018-02-23T04:08:30.063Z,0.00
2018-02-23T04:09:30.038Z,0.00
2018-02-23T04:10:30.019Z,0.00
2018-02-23T04:11:30.000Z,0.00
2018-02-23T04:12:29.986Z,0.00
2018-02-23T04:13:29.962Z,0.00
2018-02-23T04:14:29.951Z,0.00
2018-02-23T04:15:29.927Z,0.00
2018-02-23T04:16:29.906Z,0.00
2018-02-23T04:17:29.886Z,0.00
2018-02-23T04:18:29.867Z,0.00
2018-02-23T04:19:29.854Z,0.00
2018-02-23T04:20:29.831Z,0.00
2018-02-23T04:21:29.811Z,0.00
2018-02-23T04:22:29.798Z,0.00
2018-02-23T04:23:29.773Z,0.00
2018-02-23T04:24:29.754Z,0.00
2018-02-23T04:25:29.742Z,0.00
2018-02-23T04:26:29.723Z,0.00
2018-02-23T04:27:29.698Z,0.00
2018-02-23T04:28:29.681Z,0.00
2018-02-23T04:29:29.664Z,0.00
2018-02-23T04:30:29.646Z,0.00
2018-02-23T04:31:29.626Z,0.00
2018-02-23T04:32:29.611Z,0.00
2018-02-23T04:33:29.589Z,0.00
2018-02-23T04:34:29.567Z,0.00
2018-02-23T04:35:29.548Z,0.00
2018-02-23T04:36:29.533Z,0.00
2018-02-23T04:37:29.515Z,0.00
2018-02-23T04:38:29.501Z,0.00
2018-02-23T04:39:29.473Z,0.00
2018-02-23T04:40:29.482Z,0.00
2018-02-23T04:41:29.438Z,0.00
2018-02-23T04:42:29.417Z,0.00
2018-02-23T04:43:29.406Z,0.00
2018-02-23T04:44:29.382Z,0.00
2018-02-23T04:45:29.367Z,0.00
2018-02-23T04:46:29.343Z,0.00
2018-02-23T04:47:29.325Z,0.00
2018-02-23T04:48:29.313Z,0.00
2018-02-23T04:49:29.289Z,0.00
2018-02-23T04:50:29.268Z,0.00
2018-02-23T04:51:29.253Z,0.00
2018-02-23T04:52:29.231Z,0.00
2018-02-23T04:53:29.212Z,0.00
2018-02-23T04:54:29.194Z,0.00
2018-02-23T04:55:29.174Z,0.00
2018-02-23T04:56:29.161Z,0.00
2018-02-23T04:57:29.143Z,0.00
2018-02-23T04:58:29.120Z,0.00
2018-02-23T04:59:29.100Z,0.00
2018-02-23T05:00:29.091Z,0.00
2018-02-23T05:01:29.064Z,0.00
2018-02-23T05:02:29.095Z,0.00
2018-02-23T05:03:29.029Z,0.00
2018-02-23T05:04:29.008Z,0.00
2018-02-23T05:05:28.991Z,0.00
2018-02-23T05:06:28.969Z,0.00
2018-02-23T05:07:28.953Z,0.00
2018-02-23T05:08:28.933Z,0.00
2018-02-23T05:09:28.915Z,0.00
2018-02-23T05:10:28.894Z,0.00
2018-02-23T05:11:28.879Z,0.00
2018-02-23T05:12:28.859Z,0.00
2018-02-23T05:13:28.840Z,0.00
2018-02-23T05:14:28.828Z,0.00
2018-02-23T05:15:28.805Z,0.00
2018-02-23T05:16:28.786Z,0.00
2018-02-23T05:17:28.767Z,0.00
2018-02-23T05:18:28.745Z,0.00
2018-02-23T05:19:28.727Z,0.00
2018-02-23T05:20:28.710Z,0.00
2018-02-23T05:21:28.694Z,0.00
2018-02-23T05:22:28.673Z,0.00
2018-02-23T05:23:28.652Z,0.00
2018-02-23T05:24:28.639Z,0.00
2018-02-23T05:25:28.616Z,0.00
2018-02-23T05:26:28.597Z,0.00
2018-02-23T05:27:28.588Z,0.00
2018-02-23T05:28:28.567Z,0.00
2018-02-23T05:29:28.543Z,0.00
2018-02-23T05:30:28.524Z,0.00
2018-02-23T05:31:28.504Z,0.00
2018-02-23T05:32:28.486Z,0.00
2018-02-23T05:33:28.468Z,0.00
2018-02-23T05:34:28.448Z,0.00
2018-02-23T05:35:28.430Z,0.00
2018-02-23T05:36:28.416Z,0.00
2018-02-23T05:37:28.393Z,0.00
2018-02-23T05:38:28.372Z,0.00
2018-02-23T05:39:28.355Z,0.00
2018-02-23T05:40:28.336Z,0.00
2018-02-23T05:41:28.319Z,0.00
2018-02-23T05:42:28.298Z,0.00
2018-02-23T05:43:28.282Z,0.00
2018-02-23T05:44:28.262Z,0.00
2018-02-23T05:45:28.244Z,0.00
2018-02-23T05:46:28.229Z,0.00
2018-02-23T05:47:28.205Z,0.00
2018-02-23T05:48:28.187Z,0.00
2018-02-23T05:49:28.169Z,0.00
2018-02-23T05:50:28.150Z,0.00
2018-02-23T05:51:28.130Z,0.00
2018-02-23T05:52:28.113Z,0.00
2018-02-23T05:53:28.097Z,0.00
2018-02-23T05:54:28.080Z,0.00
2018-02-23T05:55:28.056Z,0.00
2018-02-23T05:56:28.035Z,0.00
2018-02-23T05:57:28.018Z,0.00
2018-02-23T05:58:28.005Z,0.00
2018-02-23T05:59:27.982Z,0.00
2018-02-23T06:00:27.966Z,0.00
2018-02-23T06:01:27.947Z,0.00
2018-02-23T06:02:27.927Z,0.00
2018-02-23T06:03:27.907Z,0.00
2018-02-23T06:04:27.888Z,0.00
2018-02-23T06:05:27.879Z,0.00
2018-02-23T06:06:27.850Z,0.00
2018-02-23T06:07:27.831Z,0.00
2018-02-23T06:08:27.819Z,0.00
2018-02-23T06:09:27.800Z,4.00
2018-02-23T06:10:27.774Z,4.00
2018-02-23T06:11:27.756Z,4.00
2018-02-23T06:12:27.737Z,0.00
2018-02-23T06:13:27.718Z,0.00
2018-02-23T06:14:27.704Z,4.00
2018-02-23T06:15:27.685Z,4.00
2018-02-23T06:16:27.659Z,4.00
2018-02-23T06:17:27.642Z,4.00
2018-02-23T06:18:27.622Z,4.00
2018-02-23T06:19:27.634Z,4.00
2018-02-23T06:20:27.597Z,4.00
2018-02-23T06:21:27.567Z,4.00
2018-02-23T06:22:27.547Z,8.00
2018-02-23T06:23:27.533Z,8.00
2018-02-23T06:24:27.511Z,8.00
2018-02-23T06:25:27.498Z,8.00
2018-02-23T06:26:27.470Z,12.00
2018-02-23T06:27:27.450Z,8.00
2018-02-23T06:28:27.433Z,12.00
2018-02-23T06:29:27.414Z,12.00
2018-02-23T06:30:27.399Z,12.00
2018-02-23T06:31:27.376Z,12.00
2018-02-23T06:32:27.362Z,12.00
2018-02-23T06:33:27.341Z,16.00
2018-02-23T06:34:27.317Z,16.00
2018-02-23T06:35:27.299Z,16.00
2018-02-23T06:36:27.311Z,16.00
2018-02-23T06:37:27.262Z,16.00
2018-02-23T06:38:27.242Z,20.00
2018-02-23T06:39:27.228Z,20.00
2018-02-23T06:40:27.208Z,20.00
2018-02-23T06:41:27.185Z,20.00
2018-02-23T06:42:27.169Z,24.00
2018-02-23T06:43:27.153Z,28.00
2018-02-23T06:44:27.136Z,32.00
2018-02-23T06:45:27.111Z,32.00
2018-02-23T06:46:27.097Z,32.00
2018-02-23T06:47:27.088Z,36.00
2018-02-23T06:48:27.057Z,40.00
2018-02-23T06:49:27.039Z,40.00
2018-02-23T06:50:27.031Z,44.00
2018-02-23T06:51:27.002Z,44.00
2018-02-23T06:52:27.023Z,48.00
2018-02-23T06:53:26.971Z,48.00
2018-02-23T06:54:26.943Z,48.00
2018-02-23T06:55:26.929Z,48.00
2018-02-23T06:56:26.909Z,48.00
2018-02-23T06:57:26.894Z,52.00
2018-02-23T06:58:26.865Z,48.00
2018-02-23T06:59:26.848Z,52.00
2018-02-23T07:00:26.823Z,52.00
2018-02-23T07:01:26.809Z,52.00
2018-02-23T07:02:26.785Z,52.00
2018-02-23T07:03:26.773Z,56.00
2018-02-23T07:04:26.747Z,56.00
2018-02-23T07:05:26.728Z,52.00
2018-02-23T07:06:26.713Z,56.00
2018-02-23T07:07:26.690Z,60.00
2018-02-23T07:08:26.673Z,60.00
2018-02-23T07:09:26.659Z,60.00
2018-02-23T07:10:26.633Z,60.00
2018-02-23T07:11:26.614Z,64.00
2018-02-23T07:12:26.601Z,68.00
2018-02-23T07:13:26.577Z,72.00
2018-02-23T07:14:26.556Z,76.00
2018-02-23T07:15:26.544Z,80.00
2018-02-23T07:16:26.544Z,80.00
2018-02-23T07:17:26.500Z,84.00
2018-02-23T07:18:26.480Z,88.00
2018-02-23T07:19:26.462Z,84.00
2018-02-23T07:20:26.448Z,88.00
2018-02-23T07:21:26.426Z,92.00
2018-02-23T07:22:26.405Z,96.00
2018-02-23T07:23:26.393Z,96.00
2018-02-23T07:24:26.369Z,96.00
2018-02-23T07:25:26.349Z,100.00
2018-02-23T07:26:26.336Z,104.00
2018-02-23T07:27:26.309Z,112.00
2018-02-23T07:28:26.290Z,116.00
2018-02-23T07:29:26.281Z,120.00
2018-02-23T07:30:26.252Z,120.00
2018-02-23T07:31:26.234Z,120.00
2018-02-23T07:32:26.213Z,124.00
2018-02-23T07:33:26.196Z,120.00
2018-02-23T07:34:26.182Z,124.00
2018-02-23T07:35:26.157Z,124.00
2018-02-23T07:36:26.138Z,124.00
2018-02-23T07:37:26.120Z,128.00
2018-02-23T07:38:26.104Z,132.00
2018-02-23T07:39:26.083Z,136.00
2018-02-23T07:40:26.062Z,132.00
2018-02-23T07:41:26.043Z,136.00
2018-02-23T07:42:26.022Z,140.00
2018-02-23T07:43:26.010Z,144.00
2018-02-23T07:44:25.989Z,140.00
2018-02-23T07:45:25.965Z,148.00
2018-02-23T07:46:25.951Z,148.00
2018-02-23T07:47:25.933Z,152.00
2018-02-23T07:48:25.914Z,152.00
2018-02-23T07:49:25.892Z,160.00
2018-02-23T07:50:25.870Z,168.00
2018-02-23T07:51:25.857Z,172.00
2018-02-23T07:52:25.833Z,164.00
2018-02-23T07:53:25.822Z,168.00
2018-02-23T07:54:25.793Z,176.00
2018-02-23T07:55:25.777Z,176.00
2018-02-23T07:56:25.757Z,184.00
2018-02-23T07:57:25.745Z,180.00
2018-02-23T07:58:25.726Z,188.00
2018-02-23T07:59:25.700Z,196.00
2018-02-23T08:00:25.687Z,184.00
2018-02-23T08:01:25.661Z,200.00
2018-02-23T08:02:25.647Z,204.00
2018-02-23T08:03:25.628Z,200.00
2018-02-23T08:04:25.614Z,204.00
2018-02-23T08:05:25.591Z,212.00
2018-02-23T08:06:25.575Z,212.00
2018-02-23T08:07:25.552Z,212.00
2018-02-23T08:08:25.528Z,216.00
2018-02-23T08:09:25.517Z,216.00
2018-02-23T08:10:25.490Z,216.00
2018-02-23T08:11:25.478Z,220.00
2018-02-23T08:12:25.457Z,224.00
2018-02-23T08:13:25.434Z,232.00
2018-02-23T08:14:25.414Z,236.00
2018-02-23T08:15:25.396Z,232.00
2018-02-23T08:16:25.377Z,236.00
2018-02-23T08:17:25.358Z,240.00
2018-02-23T08:18:25.337Z,236.00
2018-02-23T08:19:25.326Z,236.00
2018-02-23T08:20:25.302Z,244.00
2018-02-23T08:21:25.284Z,244.00
2018-02-23T08:22:25.265Z,248.00
2018-02-23T08:23:25.252Z,256.00
2018-02-23T08:24:25.226Z,252.00
2018-02-23T08:25:25.206Z,252.00
2018-02-23T08:26:25.192Z,252.00
2018-02-23T08:27:25.174Z,252.00
2018-02-23T08:28:25.150Z,252.00
2018-02-23T08:29:25.131Z,260.00
2018-02-23T08:30:25.110Z,252.00
2018-02-23T08:31:25.095Z,248.00
2018-02-23T08:32:25.082Z,264.00
2018-02-23T08:33:25.053Z,272.00
2018-02-23T08:34:25.034Z,272.00
2018-02-23T08:35:25.018Z,272.00
2018-02-23T08:36:25.004Z,276.00
2018-02-23T08:37:24.983Z,276.00
2018-02-23T08:38:24.970Z,292.00
2018-02-23T08:39:24.941Z,288.00
2018-02-23T08:40:24.924Z,296.00
2018-02-23T08:41:24.907Z,292.00
2018-02-23T08:42:24.887Z,284.00
2018-02-23T08:43:24.863Z,288.00
2018-02-23T08:44:24.849Z,292.00
2018-02-23T08:45:24.831Z,300.00
2018-02-23T08:46:24.811Z,316.00
2018-02-23T08:47:24.786Z,316.00
2018-02-23T08:48:24.773Z,312.00
2018-02-23T08:49:24.748Z,316.00
2018-02-23T08:50:24.730Z,316.00
2018-02-23T08:51:24.712Z,320.00
2018-02-23T08:52:24.702Z,332.00
2018-02-23T08:53:24.677Z,348.00
2018-02-23T08:54:24.654Z,340.00
2018-02-23T08:55:24.639Z,344.00
2018-02-23T08:56:24.616Z,332.00
2018-02-23T08:57:24.597Z,340.00
2018-02-23T08:58:24.578Z,364.00
2018-02-23T08:59:24.562Z,360.00
2018-02-23T09:00:24.540Z,356.00
2018-02-23T09:01:24.549Z,360.00
2018-02-23T09:02:24.502Z,364.00
2018-02-23T09:03:24.485Z,372.00
2018-02-23T09:04:24.463Z,376.00
2018-02-23T09:05:24.450Z,388.00
2018-02-23T09:06:24.431Z,380.00
2018-02-23T09:07:24.410Z,384.00
2018-02-23T09:08:24.390Z,372.00
2018-02-23T09:09:24.372Z,376.00
2018-02-23T09:10:24.356Z,384.00
2018-02-23T09:11:24.332Z,392.00
2018-02-23T09:12:24.314Z,400.00
2018-02-23T09:13:24.295Z,412.00
2018-02-23T09:14:24.273Z,396.00
2018-02-23T09:15:24.258Z,408.00
2018-02-23T09:16:24.236Z,404.00
2018-02-23T09:17:24.215Z,392.00
2018-02-23T09:18:24.197Z,400.00
2018-02-23T09:19:24.177Z,392.00
2018-02-23T09:20:24.164Z,376.00
2018-02-23T09:21:24.137Z,376.00
2018-02-23T09:22:24.119Z,376.00
2018-02-23T09:23:24.101Z,384.00
2018-02-23T09:24:24.085Z,392.00
2018-02-23T09:25:24.066Z,392.00
2018-02-23T09:26:24.042Z,380.00
2018-02-23T09:27:24.022Z,376.00
2018-02-23T09:28:24.006Z,388.00
2018-02-23T09:29:23.985Z,388.00
2018-02-23T09:30:23.964Z,392.00
2018-02-23T09:31:23.948Z,400.00
2018-02-23T09:32:23.928Z,396.00
2018-02-23T09:33:23.911Z,408.00
2018-02-23T09:34:23.890Z,432.00
2018-02-23T09:35:23.870Z,436.00
2018-02-23T09:36:23.851Z,424.00
2018-02-23T09:37:23.833Z,432.00
2018-02-23T09:38:23.815Z,444.00
2018-02-23T09:39:23.793Z,440.00
2018-02-23T09:40:23.775Z,428.00
2018-02-23T09:41:23.765Z,424.00
2018-02-23T09:42:23.740Z,424.00
2018-02-23T09:43:23.720Z,416.00
2018-02-23T09:44:23.699Z,412.00
2018-02-23T09:45:23.693Z,428.00
2018-02-23T09:46:23.660Z,412.00
2018-02-23T09:47:23.645Z,396.00
2018-02-23T09:48:23.622Z,392.00
2018-02-23T09:49:23.609Z,388.00
2018-02-23T09:50:23.585Z,404.00
2018-02-23T09:51:23.568Z,416.00
2018-02-23T09:52:23.550Z,420.00
2018-02-23T09:53:23.531Z,424.00
2018-02-23T09:54:23.512Z,440.00
2018-02-23T09:55:23.499Z,416.00
2018-02-23T09:56:23.476Z,428.00
2018-02-23T09:57:23.457Z,428.00
2018-02-23T09:58:23.432Z,408.00
2018-02-23T09:59:23.426Z,404.00
2018-02-23T10:00:23.404Z,404.00
2018-02-23T10:01:23.376Z,384.00
2018-02-23T10:02:23.370Z,376.00
2018-02-23T10:03:23.339Z,376.00
2018-02-23T10:04:23.323Z,392.00
2018-02-23T10:05:23.300Z,404.00
2018-02-23T10:06:23.281Z,408.00
2018-02-23T10:07:23.262Z,412.00
2018-02-23T10:08:23.243Z,420.00
2018-02-23T10:09:23.226Z,420.00
2018-02-23T10:10:23.208Z,420.00
2018-02-23T10:11:23.188Z,428.00
2018-02-23T10:12:23.183Z,404.00
2018-02-23T10:13:23.151Z,400.00
2018-02-23T10:14:23.136Z,420.00
2018-02-23T10:15:23.113Z,408.00
2018-02-23T10:16:23.102Z,444.00
2018-02-23T10:17:23.080Z,448.00
2018-02-23T10:18:23.055Z,444.00
2018-02-23T10:19:23.046Z,424.00
2018-02-23T10:20:23.018Z,404.00
2018-02-23T10:21:23.002Z,404.00
2018-02-23T10:22:22.980Z,400.00
2018-02-23T10:23:22.967Z,400.00
2018-02-23T10:24:22.948Z,420.00
2018-02-23T10:25:22.930Z,420.00
2018-02-23T10:26:22.907Z,400.00
2018-02-23T10:27:22.888Z,368.00
2018-02-23T10:28:22.874Z,352.00
2018-02-23T10:29:22.848Z,356.00
2018-02-23T10:30:22.829Z,368.00
2018-02-23T10:31:22.811Z,384.00
2018-02-23T10:32:22.794Z,412.00
2018-02-23T10:33:22.777Z,420.00
2018-02-23T10:34:22.755Z,428.00
2018-02-23T10:35:22.743Z,420.00
2018-02-23T10:36:22.718Z,396.00
2018-02-23T10:37:22.699Z,368.00
2018-02-23T10:38:22.678Z,316.00
2018-02-23T10:39:22.662Z,264.00
2018-02-23T10:40:22.645Z,232.00
2018-02-23T10:41:22.629Z,228.00
2018-02-23T10:42:22.609Z,260.00
2018-02-23T10:43:22.587Z,304.00
2018-02-23T10:44:22.570Z,344.00
2018-02-23T10:45:22.552Z,384.00
2018-02-23T10:46:22.537Z,408.00
2018-02-23T10:47:22.513Z,432.00
2018-02-23T10:48:22.495Z,468.00
2018-02-23T10:49:22.484Z,500.00
2018-02-23T10:50:22.456Z,540.00
2018-02-23T10:51:22.443Z,568.00
2018-02-23T10:52:22.419Z,580.00
2018-02-23T10:53:22.401Z,576.00
2018-02-23T10:54:22.381Z,584.00
2018-02-23T10:55:22.365Z,580.00
2018-02-23T10:56:22.345Z,580.00
2018-02-23T10:57:22.335Z,584.00
2018-02-23T10:58:22.304Z,576.00
2018-02-23T10:59:22.287Z,544.00
2018-02-23T11:00:22.269Z,532.00
2018-02-23T11:01:22.256Z,528.00
2018-02-23T11:02:22.235Z,540.00
2018-02-23T11:03:22.217Z,552.00
2018-02-23T11:04:22.204Z,528.00
2018-02-23T11:05:22.228Z,524.00
2018-02-23T11:06:22.154Z,520.00
2018-02-23T11:07:22.141Z,496.00
2018-02-23T11:08:22.119Z,448.00
2018-02-23T11:09:22.099Z,444.00
2018-02-23T11:10:22.078Z,448.00
2018-02-23T11:11:22.062Z,464.00
2018-02-23T11:12:22.046Z,488.00
2018-02-23T11:13:22.027Z,504.00
2018-02-23T11:14:22.011Z,524.00
2018-02-23T11:15:21.987Z,556.00
2018-02-23T12:36:20.474Z,424.00
2018-02-23T12:37:20.450Z,428.00
2018-02-23T12:38:20.430Z,464.00
2018-02-23T12:39:20.410Z,476.00
2018-02-23T12:40:20.391Z,468.00
2018-02-23T12:41:20.383Z,460.00
2018-02-23T12:42:20.356Z,456.00
2018-02-23T12:43:20.338Z,460.00
2018-02-23T12:44:20.320Z,444.00
2018-02-23T12:45:20.305Z,420.00
2018-02-23T12:46:20.278Z,420.00
2018-02-23T12:47:20.261Z,420.00
2018-02-23T12:48:20.242Z,436.00
2018-02-23T12:49:20.230Z,448.00
2018-02-23T12:50:20.211Z,452.00
2018-02-23T12:51:20.189Z,448.00
2018-02-23T12:52:20.172Z,440.00
2018-02-23T12:53:20.155Z,436.00
2018-02-23T12:54:20.136Z,440.00
2018-02-23T12:55:20.111Z,452.00
2018-02-23T12:56:20.094Z,464.00
2018-02-23T12:57:20.076Z,464.00
2018-02-23T12:58:20.061Z,456.00
2018-02-23T12:59:20.041Z,456.00
2018-02-23T13:00:20.017Z,464.00
2018-02-23T13:01:20.000Z,472.00
2018-02-23T13:02:19.984Z,460.00
2018-02-23T13:03:19.969Z,452.00
2018-02-23T13:04:19.944Z,464.00
2018-02-23T13:05:19.930Z,456.00
2018-02-23T13:06:19.904Z,444.00
2018-02-23T13:07:19.887Z,444.00
2018-02-23T13:08:19.872Z,444.00
2018-02-23T13:09:19.847Z,452.00
2018-02-23T13:10:19.828Z,452.00
2018-02-23T13:11:19.811Z,448.00
2018-02-23T13:12:19.797Z,444.00
2018-02-23T13:13:19.774Z,456.00
2018-02-23T13:14:19.754Z,464.00
2018-02-23T13:15:19.736Z,456.00
2018-02-23T13:16:19.716Z,464.00
2018-02-23T13:17:19.697Z,460.00
2018-02-23T13:18:19.677Z,464.00
2018-02-23T13:19:19.659Z,464.00
2018-02-23T13:20:19.644Z,468.00
2018-02-23T13:21:19.622Z,476.00
2018-02-23T13:22:19.610Z,464.00
2018-02-23T13:23:19.583Z,460.00
2018-02-23T13:24:19.566Z,480.00
2018-02-23T13:25:19.546Z,488.00
2018-02-23T13:26:19.533Z,476.00
2018-02-23T13:27:19.508Z,452.00
2018-02-23T13:28:19.489Z,452.00
2018-02-23T13:29:19.472Z,444.00
2018-02-23T13:30:19.451Z,448.00
2018-02-23T13:31:19.434Z,472.00
2018-02-23T13:32:19.414Z,464.00
2018-02-23T13:33:19.403Z,460.00
2018-02-23T13:34:19.383Z,468.00
2018-02-23T13:35:19.366Z,468.00
2018-02-23T13:36:19.346Z,472.00
2018-02-23T13:37:19.321Z,456.00
2018-02-23T13:38:19.300Z,452.00
2018-02-23T13:39:19.283Z,448.00
2018-02-23T13:40:19.266Z,420.00
2018-02-23T13:41:19.251Z,416.00
2018-02-23T13:42:19.225Z,412.00
2018-02-23T13:43:19.207Z,416.00
2018-02-23T13:44:19.193Z,424.00
2018-02-23T13:45:19.169Z,432.00
2018-02-23T13:46:19.158Z,436.00
2018-02-23T13:47:19.131Z,400.00
2018-02-23T13:48:19.111Z,384.00
2018-02-23T13:49:19.095Z,404.00
2018-02-23T13:50:19.073Z,416.00
2018-02-23T13:51:19.061Z,412.00
2018-02-23T13:52:19.038Z,384.00
2018-02-23T13:53:19.019Z,368.00
2018-02-23T13:54:19.005Z,368.00
2018-02-23T13:55:18.983Z,396.00
2018-02-23T13:56:18.969Z,396.00
2018-02-23T13:57:18.946Z,396.00
2018-02-23T13:58:18.926Z,364.00
2018-02-23T13:59:18.906Z,340.00
2018-02-23T14:00:18.892Z,340.00
2018-02-23T14:01:18.869Z,320.00
2018-02-23T14:02:18.855Z,316.00
2018-02-23T14:03:18.831Z,324.00
2018-02-23T14:04:18.813Z,332.00
2018-02-23T14:05:18.795Z,336.00
2018-02-23T14:06:18.777Z,340.00
2018-02-23T14:07:18.757Z,352.00
2018-02-23T14:08:18.740Z,348.00
2018-02-23T14:09:18.720Z,364.00
2018-02-23T14:10:18.705Z,372.00
2018-02-23T14:11:18.686Z,360.00
2018-02-23T14:12:18.660Z,344.00
2018-02-23T14:13:18.643Z,336.00
2018-02-23T14:14:18.622Z,332.00